sensor_id;sensor_type;location;lat;lon;timestamp;P1;durP1;ratioP1;P2;durP2;ratioP2
44046;SDS011;29713;-33.888;151.150;2023-08-12T00:00:33;7.03;;;3.57;;
44046;SDS011;29713;-33.888;151.150;2023-08-12T00:03:01;6.87;;;3.80;;
44046;SDS011;29713;-33.888;151.150;2023-08-12T00:05:29;9.13;;;3.63;;
44046;SDS011;29713;-33.888;151.150;2023-08-12T00:07:57;6.57;;;3.57;;
44046;SDS011;29713;-33.888;151.150;2023-08-12T00:10:24;6.63;;;3.50;;
44046;SDS011;29713;-33.888;151.150;2023-08-12T00:12:51;6.63;;;3.10;;
44046;SDS011;29713;-33.888;151.150;2023-08-12T00:15:19;6.47;;;3.20;;
44046;SDS011;29713;-33.888;151.150;2023-08-12T00:17:46;4.95;;;3.15;;
44046;SDS011;29713;-33.888;151.150;2023-08-12T00:20:13;6.50;;;3.30;;
44046;SDS011;29713;-33.888;151.150;2023-08-12T00:22:41;6.85;;;3.30;;
44046;SDS011;29713;-33.888;151.150;2023-08-12T00:25:09;4.97;;;2.92;;
44046;SDS011;29713;-33.888;151.150;2023-08-12T00:27:37;6.05;;;3.30;;
44046;SDS011;29713;-33.888;151.150;2023-08-12T00:30:05;8.13;;;3.05;;
44046;SDS011;29713;-33.888;151.150;2023-08-12T00:32:33;5.45;;;3.17;;
44046;SDS011;29713;-33.888;151.150;2023-08-12T00:35:01;9.00;;;3.30;;
44046;SDS011;29713;-33.888;151.150;2023-08-12T00:37:28;6.97;;;3.30;;
44046;SDS011;29713;-33.888;151.150;2023-08-12T00:39:56;6.43;;;3.45;;
44046;SDS011;29713;-33.888;151.150;2023-08-12T00:42:23;4.97;;;3.17;;
44046;SDS011;29713;-33.888;151.150;2023-08-12T00:44:50;7.13;;;3.65;;
44046;SDS011;29713;-33.888;151.150;2023-08-12T00:47:18;6.80;;;3.15;;
44046;SDS011;29713;-33.888;151.150;2023-08-12T00:49:46;7.15;;;3.58;;
44046;SDS011;29713;-33.888;151.150;2023-08-12T00:52:17;9.63;;;3.80;;
44046;SDS011;29713;-33.888;151.150;2023-08-12T00:54:44;7.45;;;3.72;;
44046;SDS011;29713;-33.888;151.150;2023-08-12T00:57:12;7.55;;;3.25;;
44046;SDS011;29713;-33.888;151.150;2023-08-12T00:59:39;9.48;;;4.32;;
44046;SDS011;29713;-33.888;151.150;2023-08-12T01:02:10;5.07;;;3.72;;
44046;SDS011;29713;-33.888;151.150;2023-08-12T01:04:39;9.23;;;3.88;;
44046;SDS011;29713;-33.888;151.150;2023-08-12T01:07:06;6.75;;;3.83;;
44046;SDS011;29713;-33.888;151.150;2023-08-12T01:09:33;6.20;;;3.50;;
44046;SDS011;29713;-33.888;151.150;2023-08-12T01:12:12;6.75;;;3.03;;
44046;SDS011;29713;-33.888;151.150;2023-08-12T01:15:06;8.75;;;3.58;;
44046;SDS011;29713;-33.888;151.150;2023-08-12T01:17:46;6.88;;;3.70;;
44046;SDS011;29713;-33.888;151.150;2023-08-12T01:20:17;9.43;;;3.28;;
44046;SDS011;29713;-33.888;151.150;2023-08-12T01:25:41;8.25;;;3.35;;
44046;SDS011;29713;-33.888;151.150;2023-08-12T01:28:09;5.22;;;2.80;;
44046;SDS011;29713;-33.888;151.150;2023-08-12T01:30:39;6.43;;;2.50;;
44046;SDS011;29713;-33.888;151.150;2023-08-12T01:33:40;4.55;;;2.58;;
44046;SDS011;29713;-33.888;151.150;2023-08-12T01:36:15;5.60;;;2.35;;
44046;SDS011;29713;-33.888;151.150;2023-08-12T01:38:44;6.57;;;3.05;;
44046;SDS011;29713;-33.888;151.150;2023-08-12T01:41:13;3.60;;;2.13;;
44046;SDS011;29713;-33.888;151.150;2023-08-12T01:43:41;4.45;;;2.10;;
44046;SDS011;29713;-33.888;151.150;2023-08-12T01:46:09;4.53;;;2.30;;
44046;SDS011;29713;-33.888;151.150;2023-08-12T01:48:37;4.43;;;2.10;;
44046;SDS011;29713;-33.888;151.150;2023-08-12T01:51:04;4.15;;;2.30;;
44046;SDS011;29713;-33.888;151.150;2023-08-12T01:53:32;3.97;;;2.60;;
44046;SDS011;29713;-33.888;151.150;2023-08-12T01:55:59;7.10;;;2.38;;
44046;SDS011;29713;-33.888;151.150;2023-08-12T01:58:26;5.85;;;2.70;;
44046;SDS011;29713;-33.888;151.150;2023-08-12T02:00:54;6.32;;;2.67;;
44046;SDS011;29713;-33.888;151.150;2023-08-12T02:03:21;6.35;;;2.97;;
44046;SDS011;29713;-33.888;151.150;2023-08-12T02:05:48;7.30;;;2.42;;
44046;SDS011;29713;-33.888;151.150;2023-08-12T02:08:16;4.03;;;2.22;;
44046;SDS011;29713;-33.888;151.150;2023-08-12T02:10:43;4.72;;;2.50;;
44046;SDS011;29713;-33.888;151.150;2023-08-12T02:13:10;5.13;;;2.40;;
44046;SDS011;29713;-33.888;151.150;2023-08-12T02:15:38;3.42;;;2.22;;
44046;SDS011;29713;-33.888;151.150;2023-08-12T02:18:05;4.05;;;2.53;;
44046;SDS011;29713;-33.888;151.150;2023-08-12T02:20:32;5.13;;;2.38;;
44046;SDS011;29713;-33.888;151.150;2023-08-12T02:23:00;5.78;;;2.55;;
44046;SDS011;29713;-33.888;151.150;2023-08-12T02:25:27;5.10;;;2.35;;
44046;SDS011;29713;-33.888;151.150;2023-08-12T02:27:54;4.05;;;2.20;;
44046;SDS011;29713;-33.888;151.150;2023-08-12T02:30:22;5.82;;;2.47;;
44046;SDS011;29713;-33.888;151.150;2023-08-12T02:32:49;4.30;;;2.33;;
44046;SDS011;29713;-33.888;151.150;2023-08-12T02:35:20;5.88;;;2.60;;
44046;SDS011;29713;-33.888;151.150;2023-08-12T02:37:48;9.27;;;2.22;;
44046;SDS011;29713;-33.888;151.150;2023-08-12T02:40:15;6.30;;;2.50;;
44046;SDS011;29713;-33.888;151.150;2023-08-12T02:42:43;4.43;;;2.10;;
44046;SDS011;29713;-33.888;151.150;2023-08-12T02:45:10;3.33;;;2.10;;
44046;SDS011;29713;-33.888;151.150;2023-08-12T02:47:37;3.72;;;1.73;;
44046;SDS011;29713;-33.888;151.150;2023-08-12T02:50:05;2.33;;;1.48;;
44046;SDS011;29713;-33.888;151.150;2023-08-12T02:52:33;5.88;;;1.50;;
44046;SDS011;29713;-33.888;151.150;2023-08-12T02:55:00;4.00;;;1.88;;
44046;SDS011;29713;-33.888;151.150;2023-08-12T02:57:27;4.43;;;2.15;;
44046;SDS011;29713;-33.888;151.150;2023-08-12T02:59:55;4.55;;;2.25;;
44046;SDS011;29713;-33.888;151.150;2023-08-12T03:02:22;5.13;;;1.92;;
44046;SDS011;29713;-33.888;151.150;2023-08-12T03:04:49;3.67;;;1.80;;
44046;SDS011;29713;-33.888;151.150;2023-08-12T03:07:22;5.95;;;1.80;;
44046;SDS011;29713;-33.888;151.150;2023-08-12T03:09:49;3.03;;;1.48;;
44046;SDS011;29713;-33.888;151.150;2023-08-12T03:12:16;3.17;;;1.60;;
44046;SDS011;29713;-33.888;151.150;2023-08-12T03:14:44;2.45;;;1.50;;
44046;SDS011;29713;-33.888;151.150;2023-08-12T03:17:11;4.25;;;1.75;;
44046;SDS011;29713;-33.888;151.150;2023-08-12T03:19:39;4.43;;;1.40;;
44046;SDS011;29713;-33.888;151.150;2023-08-12T03:22:06;2.63;;;1.40;;
44046;SDS011;29713;-33.888;151.150;2023-08-12T03:24:33;3.67;;;1.80;;
44046;SDS011;29713;-33.888;151.150;2023-08-12T03:27:01;4.10;;;1.80;;
44046;SDS011;29713;-33.888;151.150;2023-08-12T03:29:28;1.88;;;1.40;;
44046;SDS011;29713;-33.888;151.150;2023-08-12T03:31:55;2.50;;;1.45;;
44046;SDS011;29713;-33.888;151.150;2023-08-12T03:34:23;3.35;;;1.45;;
44046;SDS011;29713;-33.888;151.150;2023-08-12T03:36:50;6.95;;;1.48;;
44046;SDS011;29713;-33.888;151.150;2023-08-12T03:39:17;4.05;;;1.35;;
44046;SDS011;29713;-33.888;151.150;2023-08-12T03:41:45;3.50;;;1.75;;
44046;SDS011;29713;-33.888;151.150;2023-08-12T03:44:12;4.82;;;1.85;;
44046;SDS011;29713;-33.888;151.150;2023-08-12T03:46:39;3.17;;;2.00;;
44046;SDS011;29713;-33.888;151.150;2023-08-12T03:49:06;3.65;;;1.80;;
44046;SDS011;29713;-33.888;151.150;2023-08-12T03:51:34;4.15;;;2.00;;
44046;SDS011;29713;-33.888;151.150;2023-08-12T03:54:01;4.20;;;1.83;;
44046;SDS011;29713;-33.888;151.150;2023-08-12T03:56:29;3.60;;;1.90;;
44046;SDS011;29713;-33.888;151.150;2023-08-12T03:58:58;4.35;;;1.85;;
44046;SDS011;29713;-33.888;151.150;2023-08-12T04:01:25;4.07;;;1.70;;
44046;SDS011;29713;-33.888;151.150;2023-08-12T04:03:53;4.03;;;1.52;;
44046;SDS011;29713;-33.888;151.150;2023-08-12T04:06:20;4.45;;;1.50;;
44046;SDS011;29713;-33.888;151.150;2023-08-12T04:08:47;4.18;;;1.80;;
44046;SDS011;29713;-33.888;151.150;2023-08-12T04:11:15;3.75;;;1.48;;
44046;SDS011;29713;-33.888;151.150;2023-08-12T04:13:42;4.20;;;1.80;;
44046;SDS011;29713;-33.888;151.150;2023-08-12T04:16:09;5.28;;;1.70;;
44046;SDS011;29713;-33.888;151.150;2023-08-12T04:18:36;3.83;;;1.75;;
44046;SDS011;29713;-33.888;151.150;2023-08-12T04:21:04;3.70;;;1.70;;
44046;SDS011;29713;-33.888;151.150;2023-08-12T04:23:31;4.43;;;2.00;;
44046;SDS011;29713;-33.888;151.150;2023-08-12T04:25:58;4.20;;;1.50;;
44046;SDS011;29713;-33.888;151.150;2023-08-12T04:28:26;2.75;;;1.50;;
44046;SDS011;29713;-33.888;151.150;2023-08-12T04:30:53;4.05;;;1.67;;
44046;SDS011;29713;-33.888;151.150;2023-08-12T04:33:20;2.88;;;1.33;;
44046;SDS011;29713;-33.888;151.150;2023-08-12T04:35:48;2.22;;;1.17;;
44046;SDS011;29713;-33.888;151.150;2023-08-12T04:38:16;3.28;;;1.20;;
44046;SDS011;29713;-33.888;151.150;2023-08-12T04:40:43;3.40;;;1.10;;
44046;SDS011;29713;-33.888;151.150;2023-08-12T04:43:11;4.88;;;1.40;;
44046;SDS011;29713;-33.888;151.150;2023-08-12T04:45:39;2.92;;;1.05;;
44046;SDS011;29713;-33.888;151.150;2023-08-12T04:48:06;2.63;;;1.20;;
44046;SDS011;29713;-33.888;151.150;2023-08-12T04:50:37;2.83;;;1.10;;
44046;SDS011;29713;-33.888;151.150;2023-08-12T04:53:05;3.47;;;1.40;;
44046;SDS011;29713;-33.888;151.150;2023-08-12T04:55:33;2.60;;;1.13;;
44046;SDS011;29713;-33.888;151.150;2023-08-12T04:58:03;2.55;;;1.17;;
44046;SDS011;29713;-33.888;151.150;2023-08-12T05:00:31;3.30;;;1.10;;
44046;SDS011;29713;-33.888;151.150;2023-08-12T05:02:59;3.22;;;1.10;;
44046;SDS011;29713;-33.888;151.150;2023-08-12T05:05:26;3.63;;;0.77;;
44046;SDS011;29713;-33.888;151.150;2023-08-12T05:07:57;3.20;;;0.98;;
44046;SDS011;29713;-33.888;151.150;2023-08-12T05:10:24;4.35;;;1.23;;
44046;SDS011;29713;-33.888;151.150;2023-08-12T05:12:51;1.73;;;0.82;;
44046;SDS011;29713;-33.888;151.150;2023-08-12T05:15:19;2.40;;;1.10;;
44046;SDS011;29713;-33.888;151.150;2023-08-12T05:17:47;4.22;;;1.35;;
44046;SDS011;29713;-33.888;151.150;2023-08-12T05:20:14;2.15;;;1.10;;
44046;SDS011;29713;-33.888;151.150;2023-08-12T05:22:41;2.15;;;1.13;;
44046;SDS011;29713;-33.888;151.150;2023-08-12T05:25:09;4.35;;;1.00;;
44046;SDS011;29713;-33.888;151.150;2023-08-12T05:27:36;2.10;;;1.33;;
44046;SDS011;29713;-33.888;151.150;2023-08-12T05:30:04;3.40;;;1.30;;
44046;SDS011;29713;-33.888;151.150;2023-08-12T05:32:32;2.17;;;1.25;;
44046;SDS011;29713;-33.888;151.150;2023-08-12T05:34:59;2.63;;;1.20;;
44046;SDS011;29713;-33.888;151.150;2023-08-12T05:37:26;2.88;;;1.58;;
44046;SDS011;29713;-33.888;151.150;2023-08-12T05:39:54;3.17;;;1.50;;
44046;SDS011;29713;-33.888;151.150;2023-08-12T05:42:21;2.80;;;1.50;;
44046;SDS011;29713;-33.888;151.150;2023-08-12T05:44:48;4.47;;;1.65;;
44046;SDS011;29713;-33.888;151.150;2023-08-12T05:47:16;3.15;;;1.63;;
44046;SDS011;29713;-33.888;151.150;2023-08-12T05:49:43;4.88;;;1.75;;
44046;SDS011;29713;-33.888;151.150;2023-08-12T05:52:11;3.90;;;1.40;;
44046;SDS011;29713;-33.888;151.150;2023-08-12T05:54:38;4.18;;;1.65;;
44046;SDS011;29713;-33.888;151.150;2023-08-12T05:57:05;4.75;;;1.58;;
44046;SDS011;29713;-33.888;151.150;2023-08-12T05:59:33;6.38;;;1.88;;
44046;SDS011;29713;-33.888;151.150;2023-08-12T06:02:00;3.28;;;1.45;;
44046;SDS011;29713;-33.888;151.150;2023-08-12T06:04:27;3.75;;;1.48;;
44046;SDS011;29713;-33.888;151.150;2023-08-12T06:06:55;6.75;;;1.40;;
44046;SDS011;29713;-33.888;151.150;2023-08-12T06:09:37;4.35;;;1.60;;
44046;SDS011;29713;-33.888;151.150;2023-08-12T06:12:05;6.20;;;2.05;;
44046;SDS011;29713;-33.888;151.150;2023-08-12T06:14:33;3.90;;;1.60;;
44046;SDS011;29713;-33.888;151.150;2023-08-12T06:17:03;3.65;;;1.80;;
44046;SDS011;29713;-33.888;151.150;2023-08-12T06:19:30;3.38;;;1.92;;
44046;SDS011;29713;-33.888;151.150;2023-08-12T06:21:58;4.63;;;1.90;;
44046;SDS011;29713;-33.888;151.150;2023-08-12T06:24:25;4.70;;;1.70;;
44046;SDS011;29713;-33.888;151.150;2023-08-12T06:26:53;4.32;;;1.98;;
44046;SDS011;29713;-33.888;151.150;2023-08-12T06:29:20;3.78;;;1.58;;
44046;SDS011;29713;-33.888;151.150;2023-08-12T06:31:47;5.13;;;1.38;;
44046;SDS011;29713;-33.888;151.150;2023-08-12T06:34:15;3.95;;;1.80;;
44046;SDS011;29713;-33.888;151.150;2023-08-12T06:36:42;3.15;;;1.38;;
44046;SDS011;29713;-33.888;151.150;2023-08-12T06:39:09;3.42;;;1.55;;
44046;SDS011;29713;-33.888;151.150;2023-08-12T06:41:37;3.53;;;1.38;;
44046;SDS011;29713;-33.888;151.150;2023-08-12T06:44:04;3.42;;;1.60;;
44046;SDS011;29713;-33.888;151.150;2023-08-12T06:46:32;3.45;;;1.60;;
44046;SDS011;29713;-33.888;151.150;2023-08-12T06:48:59;3.33;;;1.83;;
44046;SDS011;29713;-33.888;151.150;2023-08-12T06:51:27;10.90;;;6.50;;
44046;SDS011;29713;-33.888;151.150;2023-08-12T06:53:54;8.93;;;6.28;;
44046;SDS011;29713;-33.888;151.150;2023-08-12T06:56:21;9.10;;;5.82;;
44046;SDS011;29713;-33.888;151.150;2023-08-12T06:58:49;6.40;;;4.05;;
44046;SDS011;29713;-33.888;151.150;2023-08-12T07:01:16;4.63;;;2.28;;
44046;SDS011;29713;-33.888;151.150;2023-08-12T07:03:43;5.18;;;2.95;;
44046;SDS011;29713;-33.888;151.150;2023-08-12T07:06:11;6.25;;;1.90;;
44046;SDS011;29713;-33.888;151.150;2023-08-12T07:08:38;3.58;;;1.90;;
44046;SDS011;29713;-33.888;151.150;2023-08-12T07:11:05;3.83;;;1.55;;
44046;SDS011;29713;-33.888;151.150;2023-08-12T07:13:33;4.03;;;1.90;;
44046;SDS011;29713;-33.888;151.150;2023-08-12T07:16:00;3.80;;;1.50;;
44046;SDS011;29713;-33.888;151.150;2023-08-12T07:18:27;5.38;;;1.58;;
44046;SDS011;29713;-33.888;151.150;2023-08-12T07:20:55;3.20;;;1.65;;
44046;SDS011;29713;-33.888;151.150;2023-08-12T07:23:24;4.30;;;2.65;;
44046;SDS011;29713;-33.888;151.150;2023-08-12T07:25:51;5.95;;;2.13;;
44046;SDS011;29713;-33.888;151.150;2023-08-12T07:28:18;6.47;;;2.80;;
44046;SDS011;29713;-33.888;151.150;2023-08-12T07:30:47;5.05;;;2.20;;
44046;SDS011;29713;-33.888;151.150;2023-08-12T07:33:15;5.18;;;2.22;;
44046;SDS011;29713;-33.888;151.150;2023-08-12T07:35:42;2.83;;;1.67;;
44046;SDS011;29713;-33.888;151.150;2023-08-12T07:38:10;3.63;;;1.75;;
44046;SDS011;29713;-33.888;151.150;2023-08-12T07:40:37;4.80;;;1.45;;
44046;SDS011;29713;-33.888;151.150;2023-08-12T07:43:04;5.88;;;1.60;;
44046;SDS011;29713;-33.888;151.150;2023-08-12T07:45:32;4.30;;;2.40;;
44046;SDS011;29713;-33.888;151.150;2023-08-12T07:47:59;4.70;;;1.92;;
44046;SDS011;29713;-33.888;151.150;2023-08-12T07:50:26;4.50;;;2.00;;
44046;SDS011;29713;-33.888;151.150;2023-08-12T07:52:54;4.45;;;1.63;;
44046;SDS011;29713;-33.888;151.150;2023-08-12T07:55:21;2.92;;;1.50;;
44046;SDS011;29713;-33.888;151.150;2023-08-12T07:57:48;3.80;;;1.88;;
44046;SDS011;29713;-33.888;151.150;2023-08-12T08:00:16;4.15;;;1.85;;
44046;SDS011;29713;-33.888;151.150;2023-08-12T08:02:43;5.18;;;2.50;;
44046;SDS011;29713;-33.888;151.150;2023-08-12T08:05:11;4.38;;;2.33;;
44046;SDS011;29713;-33.888;151.150;2023-08-12T08:07:38;3.30;;;1.98;;
44046;SDS011;29713;-33.888;151.150;2023-08-12T08:10:05;3.42;;;2.10;;
44046;SDS011;29713;-33.888;151.150;2023-08-12T08:12:33;5.80;;;2.28;;
44046;SDS011;29713;-33.888;151.150;2023-08-12T08:15:00;4.07;;;2.38;;
44046;SDS011;29713;-33.888;151.150;2023-08-12T08:17:29;4.05;;;3.03;;
44046;SDS011;29713;-33.888;151.150;2023-08-12T08:19:56;9.57;;;3.67;;
44046;SDS011;29713;-33.888;151.150;2023-08-12T08:22:23;4.45;;;2.88;;
44046;SDS011;29713;-33.888;151.150;2023-08-12T08:24:51;5.10;;;2.65;;
44046;SDS011;29713;-33.888;151.150;2023-08-12T08:27:18;4.78;;;2.90;;
44046;SDS011;29713;-33.888;151.150;2023-08-12T08:29:45;6.68;;;3.10;;
44046;SDS011;29713;-33.888;151.150;2023-08-12T08:32:13;5.70;;;3.70;;
44046;SDS011;29713;-33.888;151.150;2023-08-12T08:34:40;6.25;;;3.97;;
44046;SDS011;29713;-33.888;151.150;2023-08-12T08:37:08;10.55;;;4.80;;
44046;SDS011;29713;-33.888;151.150;2023-08-12T08:39:35;6.45;;;3.85;;
44046;SDS011;29713;-33.888;151.150;2023-08-12T08:42:04;6.80;;;4.55;;
44046;SDS011;29713;-33.888;151.150;2023-08-12T08:44:33;9.57;;;5.10;;
44046;SDS011;29713;-33.888;151.150;2023-08-12T08:47:00;10.13;;;5.75;;
44046;SDS011;29713;-33.888;151.150;2023-08-12T08:49:29;11.35;;;6.05;;
44046;SDS011;29713;-33.888;151.150;2023-08-12T08:51:58;7.28;;;4.43;;
44046;SDS011;29713;-33.888;151.150;2023-08-12T08:54:26;9.35;;;4.93;;
44046;SDS011;29713;-33.888;151.150;2023-08-12T08:56:54;8.50;;;5.40;;
44046;SDS011;29713;-33.888;151.150;2023-08-12T08:59:22;7.45;;;5.03;;
44046;SDS011;29713;-33.888;151.150;2023-08-12T09:01:49;8.68;;;4.80;;
44046;SDS011;29713;-33.888;151.150;2023-08-12T09:04:18;7.53;;;3.83;;
44046;SDS011;29713;-33.888;151.150;2023-08-12T09:06:49;7.22;;;3.92;;
44046;SDS011;29713;-33.888;151.150;2023-08-12T09:09:19;6.47;;;3.80;;
44046;SDS011;29713;-33.888;151.150;2023-08-12T09:11:49;8.88;;;4.55;;
44046;SDS011;29713;-33.888;151.150;2023-08-12T09:14:19;9.82;;;5.70;;
44046;SDS011;29713;-33.888;151.150;2023-08-12T09:16:46;12.10;;;7.05;;
44046;SDS011;29713;-33.888;151.150;2023-08-12T09:19:14;10.05;;;5.88;;
44046;SDS011;29713;-33.888;151.150;2023-08-12T09:21:42;8.48;;;5.05;;
44046;SDS011;29713;-33.888;151.150;2023-08-12T09:24:09;9.07;;;4.95;;
44046;SDS011;29713;-33.888;151.150;2023-08-12T09:26:36;5.80;;;3.92;;
44046;SDS011;29713;-33.888;151.150;2023-08-12T09:29:04;9.00;;;4.60;;
44046;SDS011;29713;-33.888;151.150;2023-08-12T09:31:31;7.78;;;4.78;;
44046;SDS011;29713;-33.888;151.150;2023-08-12T09:34:00;9.45;;;4.82;;
44046;SDS011;29713;-33.888;151.150;2023-08-12T09:36:32;10.70;;;5.15;;
44046;SDS011;29713;-33.888;151.150;2023-08-12T09:39:00;7.85;;;4.57;;
44046;SDS011;29713;-33.888;151.150;2023-08-12T09:41:34;8.48;;;4.28;;
44046;SDS011;29713;-33.888;151.150;2023-08-12T09:44:01;7.45;;;4.60;;
44046;SDS011;29713;-33.888;151.150;2023-08-12T09:46:29;8.25;;;4.88;;
44046;SDS011;29713;-33.888;151.150;2023-08-12T09:48:59;8.73;;;5.20;;
44046;SDS011;29713;-33.888;151.150;2023-08-12T09:51:27;9.10;;;4.60;;
44046;SDS011;29713;-33.888;151.150;2023-08-12T09:53:59;8.60;;;5.05;;
44046;SDS011;29713;-33.888;151.150;2023-08-12T09:56:27;8.98;;;4.72;;
44046;SDS011;29713;-33.888;151.150;2023-08-12T09:58:59;6.88;;;4.72;;
44046;SDS011;29713;-33.888;151.150;2023-08-12T10:01:29;8.90;;;5.13;;
44046;SDS011;29713;-33.888;151.150;2023-08-12T10:03:57;10.75;;;5.35;;
44046;SDS011;29713;-33.888;151.150;2023-08-12T10:06:24;12.27;;;6.10;;
44046;SDS011;29713;-33.888;151.150;2023-08-12T10:08:52;9.33;;;5.43;;
44046;SDS011;29713;-33.888;151.150;2023-08-12T10:11:20;10.47;;;6.17;;
44046;SDS011;29713;-33.888;151.150;2023-08-12T10:13:47;8.37;;;5.57;;
44046;SDS011;29713;-33.888;151.150;2023-08-12T10:16:15;12.00;;;6.33;;
44046;SDS011;29713;-33.888;151.150;2023-08-12T10:18:43;12.60;;;6.60;;
44046;SDS011;29713;-33.888;151.150;2023-08-12T10:21:13;11.07;;;5.50;;
44046;SDS011;29713;-33.888;151.150;2023-08-12T10:23:42;8.87;;;5.87;;
44046;SDS011;29713;-33.888;151.150;2023-08-12T10:26:11;13.27;;;6.37;;
44046;SDS011;29713;-33.888;151.150;2023-08-12T10:28:40;11.70;;;6.10;;
44046;SDS011;29713;-33.888;151.150;2023-08-12T10:31:08;11.07;;;6.37;;
44046;SDS011;29713;-33.888;151.150;2023-08-12T10:33:37;12.67;;;7.27;;
44046;SDS011;29713;-33.888;151.150;2023-08-12T10:36:05;13.37;;;7.00;;
44046;SDS011;29713;-33.888;151.150;2023-08-12T10:38:33;13.17;;;7.33;;
44046;SDS011;29713;-33.888;151.150;2023-08-12T10:41:17;15.60;;;8.47;;
44046;SDS011;29713;-33.888;151.150;2023-08-12T10:43:56;13.23;;;7.60;;
44046;SDS011;29713;-33.888;151.150;2023-08-12T10:46:33;10.20;;;7.40;;
44046;SDS011;29713;-33.888;151.150;2023-08-12T10:49:05;13.57;;;7.87;;
44046;SDS011;29713;-33.888;151.150;2023-08-12T10:54:15;12.27;;;7.53;;
44046;SDS011;29713;-33.888;151.150;2023-08-12T11:02:19;13.27;;;7.00;;
44046;SDS011;29713;-33.888;151.150;2023-08-12T11:05:03;10.27;;;6.77;;
44046;SDS011;29713;-33.888;151.150;2023-08-12T11:10:14;10.37;;;5.83;;
44046;SDS011;29713;-33.888;151.150;2023-08-12T11:12:53;10.97;;;6.20;;
44046;SDS011;29713;-33.888;151.150;2023-08-12T11:15:29;11.93;;;6.27;;
44046;SDS011;29713;-33.888;151.150;2023-08-12T11:18:07;10.37;;;5.97;;
44046;SDS011;29713;-33.888;151.150;2023-08-12T11:20:35;12.50;;;6.60;;
44046;SDS011;29713;-33.888;151.150;2023-08-12T11:23:04;10.93;;;7.00;;
44046;SDS011;29713;-33.888;151.150;2023-08-12T11:25:33;12.53;;;7.27;;
44046;SDS011;29713;-33.888;151.150;2023-08-12T11:28:01;9.77;;;6.90;;
44046;SDS011;29713;-33.888;151.150;2023-08-12T11:30:30;10.33;;;6.23;;
44046;SDS011;29713;-33.888;151.150;2023-08-12T11:32:57;12.50;;;6.70;;
44046;SDS011;29713;-33.888;151.150;2023-08-12T11:35:27;10.13;;;5.73;;
44046;SDS011;29713;-33.888;151.150;2023-08-12T11:37:56;7.17;;;5.23;;
44046;SDS011;29713;-33.888;151.150;2023-08-12T11:40:25;9.77;;;5.27;;
44046;SDS011;29713;-33.888;151.150;2023-08-12T11:42:54;8.33;;;4.83;;
44046;SDS011;29713;-33.888;151.150;2023-08-12T11:45:22;9.07;;;4.70;;
44046;SDS011;29713;-33.888;151.150;2023-08-12T11:47:51;8.43;;;5.00;;
44046;SDS011;29713;-33.888;151.150;2023-08-12T11:50:20;6.73;;;4.40;;
44046;SDS011;29713;-33.888;151.150;2023-08-12T11:52:50;6.27;;;3.90;;
44046;SDS011;29713;-33.888;151.150;2023-08-12T11:55:21;5.73;;;3.77;;
44046;SDS011;29713;-33.888;151.150;2023-08-12T11:57:50;7.27;;;3.60;;
44046;SDS011;29713;-33.888;151.150;2023-08-12T12:00:17;5.77;;;3.77;;
44046;SDS011;29713;-33.888;151.150;2023-08-12T12:02:49;7.33;;;3.70;;
44046;SDS011;29713;-33.888;151.150;2023-08-12T12:05:25;5.77;;;3.57;;
44046;SDS011;29713;-33.888;151.150;2023-08-12T12:08:01;7.23;;;3.40;;
44046;SDS011;29713;-33.888;151.150;2023-08-12T12:10:31;6.67;;;3.33;;
44046;SDS011;29713;-33.888;151.150;2023-08-12T12:12:59;8.10;;;3.60;;
44046;SDS011;29713;-33.888;151.150;2023-08-12T12:15:28;8.63;;;3.50;;
44046;SDS011;29713;-33.888;151.150;2023-08-12T12:17:55;5.27;;;2.83;;
44046;SDS011;29713;-33.888;151.150;2023-08-12T12:20:23;7.60;;;3.57;;
44046;SDS011;29713;-33.888;151.150;2023-08-12T12:22:52;6.97;;;3.37;;
44046;SDS011;29713;-33.888;151.150;2023-08-12T12:25:20;8.27;;;3.70;;
44046;SDS011;29713;-33.888;151.150;2023-08-12T12:27:48;5.47;;;3.07;;
44046;SDS011;29713;-33.888;151.150;2023-08-12T12:30:16;6.13;;;3.17;;
44046;SDS011;29713;-33.888;151.150;2023-08-12T12:32:44;6.70;;;3.33;;
44046;SDS011;29713;-33.888;151.150;2023-08-12T12:35:12;6.47;;;3.20;;
44046;SDS011;29713;-33.888;151.150;2023-08-12T12:37:39;7.03;;;3.40;;
44046;SDS011;29713;-33.888;151.150;2023-08-12T12:40:08;5.93;;;3.63;;
44046;SDS011;29713;-33.888;151.150;2023-08-12T12:42:36;6.27;;;3.50;;
44046;SDS011;29713;-33.888;151.150;2023-08-12T12:45:04;6.30;;;3.23;;
44046;SDS011;29713;-33.888;151.150;2023-08-12T12:47:31;8.30;;;3.73;;
44046;SDS011;29713;-33.888;151.150;2023-08-12T12:49:59;9.77;;;4.00;;
44046;SDS011;29713;-33.888;151.150;2023-08-12T12:52:26;8.50;;;4.37;;
44046;SDS011;29713;-33.888;151.150;2023-08-12T12:54:53;6.53;;;4.10;;
44046;SDS011;29713;-33.888;151.150;2023-08-12T12:57:23;6.97;;;3.90;;
44046;SDS011;29713;-33.888;151.150;2023-08-12T12:59:50;7.73;;;3.87;;
44046;SDS011;29713;-33.888;151.150;2023-08-12T13:02:17;8.57;;;4.10;;
44046;SDS011;29713;-33.888;151.150;2023-08-12T13:04:45;8.90;;;3.90;;
44046;SDS011;29713;-33.888;151.150;2023-08-12T13:07:12;5.90;;;3.57;;
44046;SDS011;29713;-33.888;151.150;2023-08-12T13:09:40;7.87;;;3.53;;
44046;SDS011;29713;-33.888;151.150;2023-08-12T13:12:07;6.87;;;3.57;;
44046;SDS011;29713;-33.888;151.150;2023-08-12T13:14:35;7.00;;;3.30;;
44046;SDS011;29713;-33.888;151.150;2023-08-12T13:17:02;7.57;;;3.80;;
44046;SDS011;29713;-33.888;151.150;2023-08-12T13:19:29;5.60;;;3.47;;
44046;SDS011;29713;-33.888;151.150;2023-08-12T13:21:58;6.07;;;3.30;;
44046;SDS011;29713;-33.888;151.150;2023-08-12T13:24:27;5.47;;;3.07;;
44046;SDS011;29713;-33.888;151.150;2023-08-12T13:26:54;5.67;;;3.30;;
44046;SDS011;29713;-33.888;151.150;2023-08-12T13:29:22;5.03;;;3.50;;
44046;SDS011;29713;-33.888;151.150;2023-08-12T13:31:51;7.13;;;3.53;;
44046;SDS011;29713;-33.888;151.150;2023-08-12T13:34:18;7.80;;;4.27;;
44046;SDS011;29713;-33.888;151.150;2023-08-12T13:36:46;6.77;;;3.30;;
44046;SDS011;29713;-33.888;151.150;2023-08-12T13:39:13;7.23;;;3.67;;
44046;SDS011;29713;-33.888;151.150;2023-08-12T13:41:41;6.43;;;3.60;;
44046;SDS011;29713;-33.888;151.150;2023-08-12T13:44:09;6.70;;;3.60;;
44046;SDS011;29713;-33.888;151.150;2023-08-12T13:46:36;4.10;;;3.17;;
44046;SDS011;29713;-33.888;151.150;2023-08-12T13:49:03;5.93;;;3.40;;
44046;SDS011;29713;-33.888;151.150;2023-08-12T13:51:31;7.57;;;4.10;;
44046;SDS011;29713;-33.888;151.150;2023-08-12T13:53:58;6.73;;;3.73;;
44046;SDS011;29713;-33.888;151.150;2023-08-12T13:56:26;8.07;;;3.80;;
44046;SDS011;29713;-33.888;151.150;2023-08-12T13:58:53;7.17;;;3.57;;
44046;SDS011;29713;-33.888;151.150;2023-08-12T14:01:21;7.47;;;3.53;;
44046;SDS011;29713;-33.888;151.150;2023-08-12T14:03:49;5.10;;;3.57;;
44046;SDS011;29713;-33.888;151.150;2023-08-12T14:06:16;7.37;;;3.50;;
44046;SDS011;29713;-33.888;151.150;2023-08-12T14:08:43;5.50;;;3.10;;
44046;SDS011;29713;-33.888;151.150;2023-08-12T14:11:10;10.00;;;3.83;;
44046;SDS011;29713;-33.888;151.150;2023-08-12T14:13:38;8.67;;;4.67;;
44046;SDS011;29713;-33.888;151.150;2023-08-12T14:16:05;8.73;;;4.70;;
44046;SDS011;29713;-33.888;151.150;2023-08-12T14:18:32;6.23;;;4.27;;
44046;SDS011;29713;-33.888;151.150;2023-08-12T14:21:00;9.83;;;3.73;;
44046;SDS011;29713;-33.888;151.150;2023-08-12T14:23:27;6.13;;;3.57;;
44046;SDS011;29713;-33.888;151.150;2023-08-12T14:25:54;6.33;;;3.77;;
44046;SDS011;29713;-33.888;151.150;2023-08-12T14:28:22;7.73;;;4.10;;